sensor_id;sensor_type;location;lat;lon;timestamp;temperature;humidity
20057;DHT22;10189;49.546;7.906;2023-10-13T00:00:30;14.00;99.90
20057;DHT22;10189;49.546;7.906;2023-10-13T00:03:01;14.10;99.90
20057;DHT22;10189;49.546;7.906;2023-10-13T00:05:30;14.10;99.90
20057;DHT22;10189;49.546;7.906;2023-10-13T00:08:00;14.10;99.90
20057;DHT22;10189;49.546;7.906;2023-10-13T00:10:31;14.10;99.90
20057;DHT22;10189;49.546;7.906;2023-10-13T00:12:59;14.10;99.90
20057;DHT22;10189;49.546;7.906;2023-10-13T00:15:42;14.10;99.90
20057;DHT22;10189;49.546;7.906;2023-10-13T00:18:28;14.00;99.90
20057;DHT22;10189;49.546;7.906;2023-10-13T00:21:08;14.10;99.90
20057;DHT22;10189;49.546;7.906;2023-10-13T00:23:39;14.00;99.90
20057;DHT22;10189;49.546;7.906;2023-10-13T00:26:21;14.00;99.90
20057;DHT22;10189;49.546;7.906;2023-10-13T00:28:56;14.00;99.90
20057;DHT22;10189;49.546;7.906;2023-10-13T00:31:55;14.00;99.90
20057;DHT22;10189;49.546;7.906;2023-10-13T00:34:21;14.00;99.90
20057;DHT22;10189;49.546;7.906;2023-10-13T00:36:58;14.10;99.90
20057;DHT22;10189;49.546;7.906;2023-10-13T00:39:42;14.10;99.90
20057;DHT22;10189;49.546;7.906;2023-10-13T00:42:14;14.10;99.90
20057;DHT22;10189;49.546;7.906;2023-10-13T00:44:45;14.10;99.90
20057;DHT22;10189;49.546;7.906;2023-10-13T00:47:18;14.10;99.90
20057;DHT22;10189;49.546;7.906;2023-10-13T00:50:07;14.20;99.90
20057;DHT22;10189;49.546;7.906;2023-10-13T00:52:37;14.20;99.90
20057;DHT22;10189;49.546;7.906;2023-10-13T00:55:07;14.30;99.90
20057;DHT22;10189;49.546;7.906;2023-10-13T00:57:34;14.30;99.90
20057;DHT22;10189;49.546;7.906;2023-10-13T01:00:02;14.30;99.90
20057;DHT22;10189;49.546;7.906;2023-10-13T01:02:45;14.30;99.90
20057;DHT22;10189;49.546;7.906;2023-10-13T01:05:20;14.20;99.90
20057;DHT22;10189;49.546;7.906;2023-10-13T01:07:47;14.30;99.90
20057;DHT22;10189;49.546;7.906;2023-10-13T01:10:20;14.20;99.90
20057;DHT22;10189;49.546;7.906;2023-10-13T01:12:52;14.20;99.90
20057;DHT22;10189;49.546;7.906;2023-10-13T01:15:18;14.20;99.90
20057;DHT22;10189;49.546;7.906;2023-10-13T01:17:47;14.20;99.90
20057;DHT22;10189;49.546;7.906;2023-10-13T01:20:17;14.10;99.90
20057;DHT22;10189;49.546;7.906;2023-10-13T01:22:52;14.00;99.90
20057;DHT22;10189;49.546;7.906;2023-10-13T01:25:25;14.00;99.90
20057;DHT22;10189;49.546;7.906;2023-10-13T01:27:55;13.90;99.90
20057;DHT22;10189;49.546;7.906;2023-10-13T01:30:22;13.90;99.90
20057;DHT22;10189;49.546;7.906;2023-10-13T01:32:51;13.90;99.90
20057;DHT22;10189;49.546;7.906;2023-10-13T01:35:19;13.90;99.90
20057;DHT22;10189;49.546;7.906;2023-10-13T01:37:51;13.80;99.90
20057;DHT22;10189;49.546;7.906;2023-10-13T01:40:17;13.80;99.90
20057;DHT22;10189;49.546;7.906;2023-10-13T01:42:46;13.70;99.90
20057;DHT22;10189;49.546;7.906;2023-10-13T01:45:12;13.70;99.90
20057;DHT22;10189;49.546;7.906;2023-10-13T01:47:40;13.60;99.90
20057;DHT22;10189;49.546;7.906;2023-10-13T01:50:07;13.50;99.90
20057;DHT22;10189;49.546;7.906;2023-10-13T01:52:40;13.50;99.90
20057;DHT22;10189;49.546;7.906;2023-10-13T01:55:08;13.40;99.90
20057;DHT22;10189;49.546;7.906;2023-10-13T01:57:37;13.40;99.90
20057;DHT22;10189;49.546;7.906;2023-10-13T02:00:03;13.30;99.90
20057;DHT22;10189;49.546;7.906;2023-10-13T02:02:37;13.20;99.90
20057;DHT22;10189;49.546;7.906;2023-10-13T02:05:11;13.20;99.90
20057;DHT22;10189;49.546;7.906;2023-10-13T02:07:37;13.10;99.90
20057;DHT22;10189;49.546;7.906;2023-10-13T02:10:05;13.10;99.90
20057;DHT22;10189;49.546;7.906;2023-10-13T02:12:32;13.00;99.90
20057;DHT22;10189;49.546;7.906;2023-10-13T02:15:13;13.00;99.90
20057;DHT22;10189;49.546;7.906;2023-10-13T02:17:47;13.00;99.90
20057;DHT22;10189;49.546;7.906;2023-10-13T02:20:17;13.00;99.90
20057;DHT22;10189;49.546;7.906;2023-10-13T02:22:44;13.00;99.90
20057;DHT22;10189;49.546;7.906;2023-10-13T02:25:16;13.10;99.90
20057;DHT22;10189;49.546;7.906;2023-10-13T02:28:01;13.10;99.90
20057;DHT22;10189;49.546;7.906;2023-10-13T02:30:27;13.10;99.90
20057;DHT22;10189;49.546;7.906;2023-10-13T02:32:54;13.10;99.90
20057;DHT22;10189;49.546;7.906;2023-10-13T02:35:21;13.10;99.90
20057;DHT22;10189;49.546;7.906;2023-10-13T02:37:56;13.10;99.90
20057;DHT22;10189;49.546;7.906;2023-10-13T02:40:24;13.30;99.90
20057;DHT22;10189;49.546;7.906;2023-10-13T02:42:50;13.30;99.90
20057;DHT22;10189;49.546;7.906;2023-10-13T02:45:16;13.30;99.90
20057;DHT22;10189;49.546;7.906;2023-10-13T02:47:47;13.30;99.90
20057;DHT22;10189;49.546;7.906;2023-10-13T02:50:33;13.40;99.90
20057;DHT22;10189;49.546;7.906;2023-10-13T02:52:59;13.40;99.90
20057;DHT22;10189;49.546;7.906;2023-10-13T02:55:25;13.40;99.90
20057;DHT22;10189;49.546;7.906;2023-10-13T02:57:51;13.30;99.90
20057;DHT22;10189;49.546;7.906;2023-10-13T03:00:21;13.20;99.90
20057;DHT22;10189;49.546;7.906;2023-10-13T03:02:49;13.20;99.90
20057;DHT22;10189;49.546;7.906;2023-10-13T03:05:24;13.10;99.90
20057;DHT22;10189;49.546;7.906;2023-10-13T03:07:49;13.10;99.90
20057;DHT22;10189;49.546;7.906;2023-10-13T03:10:16;13.10;99.90
20057;DHT22;10189;49.546;7.906;2023-10-13T03:12:45;13.10;99.90
20057;DHT22;10189;49.546;7.906;2023-10-13T03:15:14;13.10;99.90
20057;DHT22;10189;49.546;7.906;2023-10-13T03:17:40;13.10;99.90
20057;DHT22;10189;49.546;7.906;2023-10-13T03:20:17;13.10;99.90
20057;DHT22;10189;49.546;7.906;2023-10-13T03:22:54;13.20;99.90
20057;DHT22;10189;49.546;7.906;2023-10-13T03:25:20;13.20;99.90
20057;DHT22;10189;49.546;7.906;2023-10-13T03:27:59;13.20;99.90
20057;DHT22;10189;49.546;7.906;2023-10-13T03:30:24;13.10;99.90
20057;DHT22;10189;49.546;7.906;2023-10-13T03:33:07;13.10;99.90
20057;DHT22;10189;49.546;7.906;2023-10-13T03:35:40;13.10;99.90
20057;DHT22;10189;49.546;7.906;2023-10-13T03:38:11;13.10;99.90
20057;DHT22;10189;49.546;7.906;2023-10-13T03:40:49;13.10;99.90
20057;DHT22;10189;49.546;7.906;2023-10-13T03:43:32;13.10;99.90
20057;DHT22;10189;49.546;7.906;2023-10-13T03:46:00;13.10;99.90
20057;DHT22;10189;49.546;7.906;2023-10-13T03:48:26;13.20;99.90
20057;DHT22;10189;49.546;7.906;2023-10-13T03:50:58;13.20;99.90
20057;DHT22;10189;49.546;7.906;2023-10-13T03:53:41;13.20;99.90
20057;DHT22;10189;49.546;7.906;2023-10-13T03:56:27;13.20;99.90
20057;DHT22;10189;49.546;7.906;2023-10-13T03:58:57;13.30;99.90
20057;DHT22;10189;49.546;7.906;2023-10-13T04:01:26;13.30;99.90
20057;DHT22;10189;49.546;7.906;2023-10-13T04:04:06;13.30;99.90
20057;DHT22;10189;49.546;7.906;2023-10-13T04:06:36;13.30;99.90
20057;DHT22;10189;49.546;7.906;2023-10-13T04:09:20;13.30;99.90
20057;DHT22;10189;49.546;7.906;2023-10-13T04:12:00;13.30;99.90
20057;DHT22;10189;49.546;7.906;2023-10-13T04:14:40;13.30;99.90
20057;DHT22;10189;49.546;7.906;2023-10-13T04:17:27;13.40;99.90
20057;DHT22;10189;49.546;7.906;2023-10-13T04:19:58;13.40;99.90
20057;DHT22;10189;49.546;7.906;2023-10-13T04:22:44;13.40;99.90
20057;DHT22;10189;49.546;7.906;2023-10-13T04:25:18;13.40;99.90
20057;DHT22;10189;49.546;7.906;2023-10-13T04:28:07;13.30;99.90
20057;DHT22;10189;49.546;7.906;2023-10-13T04:30:48;13.20;99.90
20057;DHT22;10189;49.546;7.906;2023-10-13T04:33:18;13.10;99.90
20057;DHT22;10189;49.546;7.906;2023-10-13T04:36:05;13.00;99.90
20057;DHT22;10189;49.546;7.906;2023-10-13T04:38:55;12.90;99.90
20057;DHT22;10189;49.546;7.906;2023-10-13T04:41:38;12.80;99.90
20057;DHT22;10189;49.546;7.906;2023-10-13T04:44:16;12.80;99.90
20057;DHT22;10189;49.546;7.906;2023-10-13T04:47:02;12.70;99.90
20057;DHT22;10189;49.546;7.906;2023-10-13T04:49:29;12.60;99.90
20057;DHT22;10189;49.546;7.906;2023-10-13T04:52:08;12.50;99.90
20057;DHT22;10189;49.546;7.906;2023-10-13T04:54:45;12.40;99.90
20057;DHT22;10189;49.546;7.906;2023-10-13T04:57:15;12.40;99.90
20057;DHT22;10189;49.546;7.906;2023-10-13T05:00:01;12.40;99.90
20057;DHT22;10189;49.546;7.906;2023-10-13T05:02:30;12.40;99.90
20057;DHT22;10189;49.546;7.906;2023-10-13T05:05:15;12.40;99.90
20057;DHT22;10189;49.546;7.906;2023-10-13T05:07:46;12.40;99.90
20057;DHT22;10189;49.546;7.906;2023-10-13T05:10:30;12.40;99.90
20057;DHT22;10189;49.546;7.906;2023-10-13T05:13:15;12.40;99.90
20057;DHT22;10189;49.546;7.906;2023-10-13T05:16:00;12.50;99.90
20057;DHT22;10189;49.546;7.906;2023-10-13T05:18:44;12.40;99.90
20057;DHT22;10189;49.546;7.906;2023-10-13T05:21:29;12.50;99.90
20057;DHT22;10189;49.546;7.906;2023-10-13T05:24:14;12.50;99.90
20057;DHT22;10189;49.546;7.906;2023-10-13T05:26:58;12.50;99.90
20057;DHT22;10189;49.546;7.906;2023-10-13T05:29:44;12.40;99.90
20057;DHT22;10189;49.546;7.906;2023-10-13T05:32:30;12.40;99.90
20057;DHT22;10189;49.546;7.906;2023-10-13T05:35:15;12.40;99.90
20057;DHT22;10189;49.546;7.906;2023-10-13T05:38:01;12.40;99.90
20057;DHT22;10189;49.546;7.906;2023-10-13T05:40:59;12.40;99.90
20057;DHT22;10189;49.546;7.906;2023-10-13T05:43:45;12.40;99.90
20057;DHT22;10189;49.546;7.906;2023-10-13T05:46:29;12.40;99.90
20057;DHT22;10189;49.546;7.906;2023-10-13T05:49:05;12.40;99.90
20057;DHT22;10189;49.546;7.906;2023-10-13T05:51:38;12.40;99.90
20057;DHT22;10189;49.546;7.906;2023-10-13T05:54:07;12.50;99.90
20057;DHT22;10189;49.546;7.906;2023-10-13T05:59:36;12.50;99.90
20057;DHT22;10189;49.546;7.906;2023-10-13T06:02:23;12.50;99.90
20057;DHT22;10189;49.546;7.906;2023-10-13T06:05:09;12.60;99.90
20057;DHT22;10189;49.546;7.906;2023-10-13T06:07:56;12.60;99.90
20057;DHT22;10189;49.546;7.906;2023-10-13T06:10:42;12.70;99.90
20057;DHT22;10189;49.546;7.906;2023-10-13T06:13:27;12.80;99.90
20057;DHT22;10189;49.546;7.906;2023-10-13T06:16:14;12.90;99.90
20057;DHT22;10189;49.546;7.906;2023-10-13T06:19:00;13.10;99.90
20057;DHT22;10189;49.546;7.906;2023-10-13T06:21:46;13.20;99.90
20057;DHT22;10189;49.546;7.906;2023-10-13T06:24:31;13.30;99.90
20057;DHT22;10189;49.546;7.906;2023-10-13T06:27:16;13.40;99.90
20057;DHT22;10189;49.546;7.906;2023-10-13T06:30:01;13.60;99.90
20057;DHT22;10189;49.546;7.906;2023-10-13T06:32:30;13.70;99.90
20057;DHT22;10189;49.546;7.906;2023-10-13T06:34:58;13.90;99.90
20057;DHT22;10189;49.546;7.906;2023-10-13T06:37:27;13.90;99.90
20057;DHT22;10189;49.546;7.906;2023-10-13T06:39:59;14.10;99.90
20057;DHT22;10189;49.546;7.906;2023-10-13T06:42:32;14.20;99.90
20057;DHT22;10189;49.546;7.906;2023-10-13T06:45:08;14.40;99.90
20057;DHT22;10189;49.546;7.906;2023-10-13T06:47:37;14.70;99.90
20057;DHT22;10189;49.546;7.906;2023-10-13T06:50:13;15.00;99.90
20057;DHT22;10189;49.546;7.906;2023-10-13T06:52:47;15.20;98.10
20057;DHT22;10189;49.546;7.906;2023-10-13T06:55:14;15.50;97.90
20057;DHT22;10189;49.546;7.906;2023-10-13T06:57:49;15.80;97.10
20057;DHT22;10189;49.546;7.906;2023-10-13T07:00:17;16.10;96.60
20057;DHT22;10189;49.546;7.906;2023-10-13T07:02:55;16.40;93.90
20057;DHT22;10189;49.546;7.906;2023-10-13T07:05:37;16.60;93.10
20057;DHT22;10189;49.546;7.906;2023-10-13T07:08:07;16.80;92.20
20057;DHT22;10189;49.546;7.906;2023-10-13T07:10:35;17.00;90.00
20057;DHT22;10189;49.546;7.906;2023-10-13T07:13:14;17.20;89.30
20057;DHT22;10189;49.546;7.906;2023-10-13T07:15:40;17.40;87.50
20057;DHT22;10189;49.546;7.906;2023-10-13T07:18:16;17.60;87.00
20057;DHT22;10189;49.546;7.906;2023-10-13T07:20:44;17.80;86.20
20057;DHT22;10189;49.546;7.906;2023-10-13T07:23:11;18.00;85.90
20057;DHT22;10189;49.546;7.906;2023-10-13T07:25:54;18.20;83.90
20057;DHT22;10189;49.546;7.906;2023-10-13T07:28:31;18.30;82.50
20057;DHT22;10189;49.546;7.906;2023-10-13T07:31:04;18.50;80.70
20057;DHT22;10189;49.546;7.906;2023-10-13T07:33:31;18.50;81.60
20057;DHT22;10189;49.546;7.906;2023-10-13T07:36:05;18.50;81.30
20057;DHT22;10189;49.546;7.906;2023-10-13T07:38:45;18.40;80.40
20057;DHT22;10189;49.546;7.906;2023-10-13T07:41:25;18.30;81.00
20057;DHT22;10189;49.546;7.906;2023-10-13T07:43:56;18.20;80.80
20057;DHT22;10189;49.546;7.906;2023-10-13T07:46:25;18.00;81.20
20057;DHT22;10189;49.546;7.906;2023-10-13T07:48:57;17.90;81.40
20057;DHT22;10189;49.546;7.906;2023-10-13T07:51:35;17.90;82.60
20057;DHT22;10189;49.546;7.906;2023-10-13T07:54:13;18.00;81.90
20057;DHT22;10189;49.546;7.906;2023-10-13T07:56:49;18.20;81.20
20057;DHT22;10189;49.546;7.906;2023-10-13T07:59:16;18.10;81.80
20057;DHT22;10189;49.546;7.906;2023-10-13T08:01:42;18.30;82.60
20057;DHT22;10189;49.546;7.906;2023-10-13T08:04:11;18.30;81.80
20057;DHT22;10189;49.546;7.906;2023-10-13T08:06:40;18.40;81.70
20057;DHT22;10189;49.546;7.906;2023-10-13T08:09:09;18.50;81.50
20057;DHT22;10189;49.546;7.906;2023-10-13T08:11:36;18.60;81.30
20057;DHT22;10189;49.546;7.906;2023-10-13T08:14:06;18.70;81.20
20057;DHT22;10189;49.546;7.906;2023-10-13T08:16:43;18.70;79.60
20057;DHT22;10189;49.546;7.906;2023-10-13T08:19:19;18.70;80.20
20057;DHT22;10189;49.546;7.906;2023-10-13T08:21:53;18.70;80.00
20057;DHT22;10189;49.546;7.906;2023-10-13T08:24:25;18.70;80.40
20057;DHT22;10189;49.546;7.906;2023-10-13T08:27:04;18.50;79.80
20057;DHT22;10189;49.546;7.906;2023-10-13T08:29:47;18.50;80.10
20057;DHT22;10189;49.546;7.906;2023-10-13T08:37:21;18.40;80.80
20057;DHT22;10189;49.546;7.906;2023-10-13T08:39:51;18.50;80.10
20057;DHT22;10189;49.546;7.906;2023-10-13T08:42:35;18.50;80.40
20057;DHT22;10189;49.546;7.906;2023-10-13T08:45:19;18.60;80.20
20057;DHT22;10189;49.546;7.906;2023-10-13T08:47:57;18.60;80.30
20057;DHT22;10189;49.546;7.906;2023-10-13T08:50:46;18.70;80.90
20057;DHT22;10189;49.546;7.906;2023-10-13T08:53:19;18.60;80.10
20057;DHT22;10189;49.546;7.906;2023-10-13T08:56:03;18.60;80.70
20057;DHT22;10189;49.546;7.906;2023-10-13T08:58:33;18.60;79.70
20057;DHT22;10189;49.546;7.906;2023-10-13T09:01:24;18.60;80.00
20057;DHT22;10189;49.546;7.906;2023-10-13T09:03:58;18.70;81.20
20057;DHT22;10189;49.546;7.906;2023-10-13T09:07:02;18.70;80.40
20057;DHT22;10189;49.546;7.906;2023-10-13T09:09:29;18.70;80.60
20057;DHT22;10189;49.546;7.906;2023-10-13T09:15:10;18.80;80.90
20057;DHT22;10189;49.546;7.906;2023-10-13T09:17:49;19.10;79.10
20057;DHT22;10189;49.546;7.906;2023-10-13T09:20:38;19.40;79.30
20057;DHT22;10189;49.546;7.906;2023-10-13T09:23:12;19.80;77.40
20057;DHT22;10189;49.546;7.906;2023-10-13T09:25:50;20.00;75.70
20057;DHT22;10189;49.546;7.906;2023-10-13T09:28:34;20.30;77.10
20057;DHT22;10189;49.546;7.906;2023-10-13T09:31:03;20.40;75.40
20057;DHT22;10189;49.546;7.906;2023-10-13T09:33:33;20.60;75.30
20057;DHT22;10189;49.546;7.906;2023-10-13T09:36:04;20.70;73.90
20057;DHT22;10189;49.546;7.906;2023-10-13T09:38:32;20.90;73.20
20057;DHT22;10189;49.546;7.906;2023-10-13T09:41:07;21.00;72.60
20057;DHT22;10189;49.546;7.906;2023-10-13T09:43:52;21.00;73.20
20057;DHT22;10189;49.546;7.906;2023-10-13T09:46:19;21.10;71.20
20057;DHT22;10189;49.546;7.906;2023-10-13T09:48:49;21.10;71.80
20057;DHT22;10189;49.546;7.906;2023-10-13T09:51:30;21.20;71.40
20057;DHT22;10189;49.546;7.906;2023-10-13T09:54:08;21.30;71.10
20057;DHT22;10189;49.546;7.906;2023-10-13T09:56:54;21.40;71.10
20057;DHT22;10189;49.546;7.906;2023-10-13T09:59:43;21.50;71.70
20057;DHT22;10189;49.546;7.906;2023-10-13T10:02:18;21.60;71.00
20057;DHT22;10189;49.546;7.906;2023-10-13T10:04:55;21.70;68.30
20057;DHT22;10189;49.546;7.906;2023-10-13T10:07:37;22.00;70.70
20057;DHT22;10189;49.546;7.906;2023-10-13T10:10:06;22.10;68.20
20057;DHT22;10189;49.546;7.906;2023-10-13T10:15:32;22.40;66.20
20057;DHT22;10189;49.546;7.906;2023-10-13T10:18:02;22.50;67.80
20057;DHT22;10189;49.546;7.906;2023-10-13T10:20:33;22.60;66.40
20057;DHT22;10189;49.546;7.906;2023-10-13T10:23:29;22.70;66.60
20057;DHT22;10189;49.546;7.906;2023-10-13T10:26:15;23.00;66.30
20057;DHT22;10189;49.546;7.906;2023-10-13T10:28:45;23.20;65.70
20057;DHT22;10189;49.546;7.906;2023-10-13T10:31:12;23.30;63.40
20057;DHT22;10189;49.546;7.906;2023-10-13T10:33:42;23.50;63.00
20057;DHT22;10189;49.546;7.906;2023-10-13T10:36:09;23.50;62.80
20057;DHT22;10189;49.546;7.906;2023-10-13T10:41:28;23.50;61.30
20057;DHT22;10189;49.546;7.906;2023-10-13T10:44:18;23.40;61.00
20057;DHT22;10189;49.546;7.906;2023-10-13T10:47:12;23.50;62.20
20057;DHT22;10189;49.546;7.906;2023-10-13T10:49:46;23.60;61.90
20057;DHT22;10189;49.546;7.906;2023-10-13T10:52:17;23.60;59.80
20057;DHT22;10189;49.546;7.906;2023-10-13T10:55:00;23.60;59.90
20057;DHT22;10189;49.546;7.906;2023-10-13T10:57:26;23.70;59.90
20057;DHT22;10189;49.546;7.906;2023-10-13T10:59:55;23.80;60.20
20057;DHT22;10189;49.546;7.906;2023-10-13T11:02:40;23.80;59.40
20057;DHT22;10189;49.546;7.906;2023-10-13T11:05:07;23.80;57.50
20057;DHT22;10189;49.546;7.906;2023-10-13T11:07:36;23.80;59.40
20057;DHT22;10189;49.546;7.906;2023-10-13T11:10:09;23.70;58.80
20057;DHT22;10189;49.546;7.906;2023-10-13T11:13:00;23.80;59.50
20057;DHT22;10189;49.546;7.906;2023-10-13T11:15:45;24.00;58.20
20057;DHT22;10189;49.546;7.906;2023-10-13T11:18:11;23.90;58.00
20057;DHT22;10189;49.546;7.906;2023-10-13T11:20:59;24.00;56.70
20057;DHT22;10189;49.546;7.906;2023-10-13T11:23:25;24.00;56.70
20057;DHT22;10189;49.546;7.906;2023-10-13T11:25:58;24.10;58.70
20057;DHT22;10189;49.546;7.906;2023-10-13T11:28:28;24.20;56.20
20057;DHT22;10189;49.546;7.906;2023-10-13T11:30:55;24.40;55.80
20057;DHT22;10189;49.546;7.906;2023-10-13T11:33:26;24.40;56.00
20057;DHT22;10189;49.546;7.906;2023-10-13T11:35:55;24.40;56.20
20057;DHT22;10189;49.546;7.906;2023-10-13T11:38:30;24.40;55.30
20057;DHT22;10189;49.546;7.906;2023-10-13T11:41:16;24.50;55.90
20057;DHT22;10189;49.546;7.906;2023-10-13T11:43:52;24.50;54.70
20057;DHT22;10189;49.546;7.906;2023-10-13T11:46:23;24.60;54.90
20057;DHT22;10189;49.546;7.906;2023-10-13T11:49:08;24.60;54.00
20057;DHT22;10189;49.546;7.906;2023-10-13T11:51:39;24.50;54.30
20057;DHT22;10189;49.546;7.906;2023-10-13T11:54:29;24.50;53.70
20057;DHT22;10189;49.546;7.906;2023-10-13T11:56:55;24.50;53.40
20057;DHT22;10189;49.546;7.906;2023-10-13T11:59:24;24.60;54.00
20057;DHT22;10189;49.546;7.906;2023-10-13T12:01:52;24.70;52.70
20057;DHT22;10189;49.546;7.906;2023-10-13T12:04:37;24.70;51.20
20057;DHT22;10189;49.546;7.906;2023-10-13T12:07:20;24.70;52.50
20057;DHT22;10189;49.546;7.906;2023-10-13T12:10:06;24.80;50.30
20057;DHT22;10189;49.546;7.906;2023-10-13T12:12:41;24.70;51.00
20057;DHT22;10189;49.546;7.906;2023-10-13T12:15:09;24.80;51.80
20057;DHT22;10189;49.546;7.906;2023-10-13T12:17:36;24.80;51.50
20057;DHT22;10189;49.546;7.906;2023-10-13T12:20:06;24.90;50.50
20057;DHT22;10189;49.546;7.906;2023-10-13T12:22:36;24.90;50.10
20057;DHT22;10189;49.546;7.906;2023-10-13T12:25:11;24.90;51.10
20057;DHT22;10189;49.546;7.906;2023-10-13T12:28:00;24.90;51.00
20057;DHT22;10189;49.546;7.906;2023-10-13T12:30:45;24.90;51.00
20057;DHT22;10189;49.546;7.906;2023-10-13T12:33:15;24.90;50.20
20057;DHT22;10189;49.546;7.906;2023-10-13T12:35:59;25.00;49.30
20057;DHT22;10189;49.546;7.906;2023-10-13T12:38:33;25.00;49.50
20057;DHT22;10189;49.546;7.906;2023-10-13T12:41:15;25.00;49.20
20057;DHT22;10189;49.546;7.906;2023-10-13T12:44:04;25.00;49.00
20057;DHT22;10189;49.546;7.906;2023-10-13T12:46:49;25.00;49.90
20057;DHT22;10189;49.546;7.906;2023-10-13T12:49:35;25.00;49.10
20057;DHT22;10189;49.546;7.906;2023-10-13T12:52:08;25.00;49.00
20057;DHT22;10189;49.546;7.906;2023-10-13T12:54:51;25.00;48.40
20057;DHT22;10189;49.546;7.906;2023-10-13T12:57:28;25.00;48.90
20057;DHT22;10189;49.546;7.906;2023-10-13T12:59:54;24.90;49.00
20057;DHT22;10189;49.546;7.906;2023-10-13T13:02:24;24.80;48.60
20057;DHT22;10189;49.546;7.906;2023-10-13T13:04:56;24.90;48.50
20057;DHT22;10189;49.546;7.906;2023-10-13T13:07:28;24.80;48.40
20057;DHT22;10189;49.546;7.906;2023-10-13T13:09:55;24.80;49.20
20057;DHT22;10189;49.546;7.906;2023-10-13T13:12:29;24.80;47.60
20057;DHT22;10189;49.546;7.906;2023-10-13T13:14:55;24.80;49.10
20057;DHT22;10189;49.546;7.906;2023-10-13T13:17:21;24.80;49.30
20057;DHT22;10189;49.546;7.906;2023-10-13T13:19:47;24.90;48.60
20057;DHT22;10189;49.546;7.906;2023-10-13T13:22:13;24.90;48.40
20057;DHT22;10189;49.546;7.906;2023-10-13T13:24:39;24.90;48.50
20057;DHT22;10189;49.546;7.906;2023-10-13T13:27:12;24.80;47.70
20057;DHT22;10189;49.546;7.906;2023-10-13T13:29:43;24.80;48.90
20057;DHT22;10189;49.546;7.906;2023-10-13T13:32:09;24.80;49.70
20057;DHT22;10189;49.546;7.906;2023-10-13T13:34:46;24.90;48.80
20057;DHT22;10189;49.546;7.906;2023-10-13T13:37:20;24.90;46.90
20057;DHT22;10189;49.546;7.906;2023-10-13T13:39:47;24.80;47.50
20057;DHT22;10189;49.546;7.906;2023-10-13T13:42:13;24.80;46.70
20057;DHT22;10189;49.546;7.906;2023-10-13T13:44:46;24.80;47.30
20057;DHT22;10189;49.546;7.906;2023-10-13T13:47:15;24.90;48.20
20057;DHT22;10189;49.546;7.906;2023-10-13T13:49:42;25.00;47.50
20057;DHT22;10189;49.546;7.906;2023-10-13T13:52:17;25.20;47.50
20057;DHT22;10189;49.546;7.906;2023-10-13T13:54:47;25.30;48.10
20057;DHT22;10189;49.546;7.906;2023-10-13T13:57:13;25.30;48.60
20057;DHT22;10189;49.546;7.906;2023-10-13T13:59:40;25.30;48.70
20057;DHT22;10189;49.546;7.906;2023-10-13T14:02:09;25.30;48.50
20057;DHT22;10189;49.546;7.906;2023-10-13T14:04:47;25.20;48.20
20057;DHT22;10189;49.546;7.906;2023-10-13T14:07:17;25.30;49.10
20057;DHT22;10189;49.546;7.906;2023-10-13T14:09:48;25.20;49.20
20057;DHT22;10189;49.546;7.906;2023-10-13T14:12:20;25.20;48.80
20057;DHT22;10189;49.546;7.906;2023-10-13T14:15:08;25.10;48.70
20057;DHT22;10189;49.546;7.906;2023-10-13T14:17:46;25.00;48.10
20057;DHT22;10189;49.546;7.906;2023-10-13T14:20:15;24.90;48.00
20057;DHT22;10189;49.546;7.906;2023-10-13T14:22:45;24.80;49.20
20057;DHT22;10189;49.546;7.906;2023-10-13T14:25:14;24.70;48.90
20057;DHT22;10189;49.546;7.906;2023-10-13T14:27:41;24.60;48.10
20057;DHT22;10189;49.546;7.906;2023-10-13T14:30:08;24.60;45.60
20057;DHT22;10189;49.546;7.906;2023-10-13T14:32:34;24.50;46.00
20057;DHT22;10189;49.546;7.906;2023-10-13T14:35:06;24.60;45.30
20057;DHT22;10189;49.546;7.906;2023-10-13T14:37:40;24.50;46.00
20057;DHT22;10189;49.546;7.906;2023-10-13T14:40:07;24.50;44.90
20057;DHT22;10189;49.546;7.906;2023-10-13T14:42:38;24.60;45.40
20057;DHT22;10189;49.546;7.906;2023-10-13T14:45:07;24.60;45.20
20057;DHT22;10189;49.546;7.906;2023-10-13T14:47:45;24.50;45.60
20057;DHT22;10189;49.546;7.906;2023-10-13T14:50:12;24.50;44.00
20057;DHT22;10189;49.546;7.906;2023-10-13T14:52:48;24.50;44.00
20057;DHT22;10189;49.546;7.906;2023-10-13T14:55:15;24.40;43.90
20057;DHT22;10189;49.546;7.906;2023-10-13T14:57:50;24.40;44.20
20057;DHT22;10189;49.546;7.906;2023-10-13T15:00:17;24.30;44.60
20057;DHT22;10189;49.546;7.906;2023-10-13T15:02:53;24.30;44.10
20057;DHT22;10189;49.546;7.906;2023-10-13T15:05:20;24.20;45.30
20057;DHT22;10189;49.546;7.906;2023-10-13T15:07:46;24.20;44.00
20057;DHT22;10189;49.546;7.906;2023-10-13T15:10:15;24.10;44.60
20057;DHT22;10189;49.546;7.906;2023-10-13T15:12:42;24.10;46.10
20057;DHT22;10189;49.546;7.906;2023-10-13T15:15:10;24.00;44.60
20057;DHT22;10189;49.546;7.906;2023-10-13T15:17:42;23.90;44.50
20057;DHT22;10189;49.546;7.906;2023-10-13T15:20:09;23.90;44.50
20057;DHT22;10189;49.546;7.906;2023-10-13T15:22:37;24.00;44.60
20057;DHT22;10189;49.546;7.906;2023-10-13T15:25:05;24.00;44.60
20057;DHT22;10189;49.546;7.906;2023-10-13T15:27:43;24.00;44.70
20057;DHT22;10189;49.546;7.906;2023-10-13T15:30:10;24.00;44.20
20057;DHT22;10189;49.546;7.906;2023-10-13T15:32:46;24.00;43.20
20057;DHT22;10189;49.546;7.906;2023-10-13T15:35:14;24.00;43.40
20057;DHT22;10189;49.546;7.906;2023-10-13T15:37:41;24.00;43.00
20057;DHT22;10189;49.546;7.906;2023-10-13T15:40:13;24.00;43.60
20057;DHT22;10189;49.546;7.906;2023-10-13T15:42:42;24.10;44.40
20057;DHT22;10189;49.546;7.906;2023-10-13T15:45:11;23.90;43.90
20057;DHT22;10189;49.546;7.906;2023-10-13T15:47:46;23.80;44.90
20057;DHT22;10189;49.546;7.906;2023-10-13T15:50:15;23.70;43.50
20057;DHT22;10189;49.546;7.906;2023-10-13T15:52:42;23.60;44.20
20057;DHT22;10189;49.546;7.906;2023-10-13T15:55:12;23.60;44.90
20057;DHT22;10189;49.546;7.906;2023-10-13T15:57:40;23.50;44.60
20057;DHT22;10189;49.546;7.906;2023-10-13T16:00:09;23.40;44.40
20057;DHT22;10189;49.546;7.906;2023-10-13T16:03:04;23.30;45.20
20057;DHT22;10189;49.546;7.906;2023-10-13T16:05:38;23.20;43.90
20057;DHT22;10189;49.546;7.906;2023-10-13T16:08:07;23.20;45.10
20057;DHT22;10189;49.546;7.906;2023-10-13T16:10:37;23.10;45.90
20057;DHT22;10189;49.546;7.906;2023-10-13T16:13:06;23.00;45.00
20057;DHT22;10189;49.546;7.906;2023-10-13T16:15:40;22.90;46.10
20057;DHT22;10189;49.546;7.906;2023-10-13T16:18:09;22.80;46.50
20057;DHT22;10189;49.546;7.906;2023-10-13T16:20:36;22.60;47.00
20057;DHT22;10189;49.546;7.906;2023-10-13T16:23:02;22.40;46.90
20057;DHT22;10189;49.546;7.906;2023-10-13T16:25:31;22.40;46.10
20057;DHT22;10189;49.546;7.906;2023-10-13T16:27:56;22.30;46.00
20057;DHT22;10189;49.546;7.906;2023-10-13T16:30:22;22.30;45.80